sensor_id;sensor_type;location;lat;lon;timestamp;pressure;altitude;pressure_sealevel;temperature;humidity
13476;BME280;6810;63.824;20.288;2023-02-22T00:00:40;102194.38;;;-8.21;97.96
13476;BME280;6810;63.824;20.288;2023-02-22T00:05:43;102189.00;;;-8.27;98.41
13476;BME280;6810;63.824;20.288;2023-02-22T00:08:14;102159.66;;;-8.48;97.64
13476;BME280;6810;63.824;20.288;2023-02-22T00:10:42;102191.47;;;-8.30;97.76
13476;BME280;6810;63.824;20.288;2023-02-22T00:13:12;102191.41;;;-8.31;97.85
13476;BME280;6810;63.824;20.288;2023-02-22T00:15:40;102188.75;;;-8.33;97.48
13476;BME280;6810;63.824;20.288;2023-02-22T00:18:07;102198.88;;;-8.37;97.85
13476;BME280;6810;63.824;20.288;2023-02-22T00:20:38;102194.53;;;-8.38;97.75
13476;BME280;6810;63.824;20.288;2023-02-22T00:23:08;102197.88;;;-8.41;97.76
13476;BME280;6810;63.824;20.288;2023-02-22T00:25:35;102200.34;;;-8.44;97.67
13476;BME280;6810;63.824;20.288;2023-02-22T00:28:02;102200.28;;;-8.45;97.48
13476;BME280;6810;63.824;20.288;2023-02-22T00:30:31;102200.09;;;-8.50;98.11
13476;BME280;6810;63.824;20.288;2023-02-22T00:32:59;102201.84;;;-8.49;97.73
13476;BME280;6810;63.824;20.288;2023-02-22T00:35:28;102211.22;;;-8.51;97.60
13476;BME280;6810;63.824;20.288;2023-02-22T00:37:58;102222.41;;;-8.52;98.03
13476;BME280;6810;63.824;20.288;2023-02-22T00:40:30;102214.50;;;-8.55;97.54
13476;BME280;6810;63.824;20.288;2023-02-22T00:43:01;102216.13;;;-8.57;97.63
13476;BME280;6810;63.824;20.288;2023-02-22T00:45:29;102204.88;;;-8.59;97.66
13476;BME280;6810;63.824;20.288;2023-02-22T00:47:57;102212.56;;;-8.60;97.69
13476;BME280;6810;63.824;20.288;2023-02-22T00:50:27;102209.09;;;-8.61;98.05
13476;BME280;6810;63.824;20.288;2023-02-22T00:52:55;102212.44;;;-8.63;97.24
13476;BME280;6810;63.824;20.288;2023-02-22T00:55:26;102215.75;;;-8.66;97.54
13476;BME280;6810;63.824;20.288;2023-02-22T00:57:54;102207.94;;;-8.67;97.43
13476;BME280;6810;63.824;20.288;2023-02-22T01:00:33;102209.56;;;-8.69;97.25
13476;BME280;6810;63.824;20.288;2023-02-22T01:03:06;102216.31;;;-8.73;97.75
13476;BME280;6810;63.824;20.288;2023-02-22T01:05:33;102173.78;;;-9.00;97.13
13476;BME280;6810;63.824;20.288;2023-02-22T01:08:02;102219.56;;;-8.77;96.93
13476;BME280;6810;63.824;20.288;2023-02-22T01:10:30;102221.22;;;-8.79;97.46
13476;BME280;6810;63.824;20.288;2023-02-22T01:12:58;102219.44;;;-8.80;97.15
13476;BME280;6810;63.824;20.288;2023-02-22T01:15:27;102222.84;;;-8.81;97.80
13476;BME280;6810;63.824;20.288;2023-02-22T01:17:58;102225.38;;;-8.82;97.22
13476;BME280;6810;63.824;20.288;2023-02-22T01:20:26;102154.66;;;-9.24;96.80
13476;BME280;6810;63.824;20.288;2023-02-22T01:22:56;102179.47;;;-9.09;97.67
13476;BME280;6810;63.824;20.288;2023-02-22T01:25:26;102224.22;;;-8.89;96.88
13476;BME280;6810;63.824;20.288;2023-02-22T01:27:54;102233.63;;;-8.91;97.38
13476;BME280;6810;63.824;20.288;2023-02-22T01:30:25;102238.78;;;-8.91;97.68
13476;BME280;6810;63.824;20.288;2023-02-22T01:32:54;102246.47;;;-8.92;96.95
13476;BME280;6810;63.824;20.288;2023-02-22T01:35:24;102251.56;;;-8.94;96.94
13476;BME280;6810;63.824;20.288;2023-02-22T01:37:54;102215.06;;;-9.21;97.00
13476;BME280;6810;63.824;20.288;2023-02-22T01:40:24;102253.09;;;-8.97;97.25
13476;BME280;6810;63.824;20.288;2023-02-22T01:42:59;102257.31;;;-8.99;97.01
13476;BME280;6810;63.824;20.288;2023-02-22T01:48:00;102255.28;;;-9.07;97.42
13476;BME280;6810;63.824;20.288;2023-02-22T01:50:30;102238.63;;;-9.13;97.36
13476;BME280;6810;63.824;20.288;2023-02-22T01:53:00;102263.81;;;-9.08;96.72
13476;BME280;6810;63.824;20.288;2023-02-22T01:55:27;102262.00;;;-9.10;96.88
13476;BME280;6810;63.824;20.288;2023-02-22T01:57:56;102261.09;;;-9.11;97.04
13476;BME280;6810;63.824;20.288;2023-02-22T02:00:23;102257.59;;;-9.13;97.32
13476;BME280;6810;63.824;20.288;2023-02-22T02:03:03;102266.94;;;-9.15;96.54
13476;BME280;6810;63.824;20.288;2023-02-22T02:05:33;102274.56;;;-9.18;97.21
13476;BME280;6810;63.824;20.288;2023-02-22T02:08:12;102265.00;;;-9.20;96.32
13476;BME280;6810;63.824;20.288;2023-02-22T02:10:43;102263.19;;;-9.21;97.00
13476;BME280;6810;63.824;20.288;2023-02-22T02:13:10;102265.72;;;-9.23;97.00
13476;BME280;6810;63.824;20.288;2023-02-22T02:15:37;102266.53;;;-9.24;96.93
13476;BME280;6810;63.824;20.288;2023-02-22T02:18:09;102266.41;;;-9.27;96.22
13476;BME280;6810;63.824;20.288;2023-02-22T02:39:36;102261.13;;;-9.47;96.40
13476;BME280;6810;63.824;20.288;2023-02-22T02:42:09;102257.59;;;-9.49;96.54
13476;BME280;6810;63.824;20.288;2023-02-22T02:45:03;102213.19;;;-9.79;96.63
13476;BME280;6810;63.824;20.288;2023-02-22T02:47:55;102264.25;;;-9.54;96.36
13476;BME280;6810;63.824;20.288;2023-02-22T02:50:46;102264.09;;;-9.57;96.52
13476;BME280;6810;63.824;20.288;2023-02-22T02:53:39;102267.34;;;-9.61;96.25
13476;BME280;6810;63.824;20.288;2023-02-22T02:56:28;102250.41;;;-9.74;96.30
13476;BME280;6810;63.824;20.288;2023-02-22T02:59:34;102278.31;;;-9.65;95.80
13476;BME280;6810;63.824;20.288;2023-02-22T03:02:40;102273.09;;;-9.67;96.46
13476;BME280;6810;63.824;20.288;2023-02-22T03:08:50;102283.78;;;-9.77;96.25
13476;BME280;6810;63.824;20.288;2023-02-22T03:14:56;102281.78;;;-9.82;95.56
13476;BME280;6810;63.824;20.288;2023-02-22T03:18:06;102294.53;;;-9.85;95.89
13476;BME280;6810;63.824;20.288;2023-02-22T03:21:40;102301.25;;;-9.89;95.80
13476;BME280;6810;63.824;20.288;2023-02-22T03:30:18;102321.41;;;-9.98;95.21
13476;BME280;6810;63.824;20.288;2023-02-22T03:33:12;102321.09;;;-10.04;94.88
13476;BME280;6810;63.824;20.288;2023-02-22T03:36:13;102328.03;;;-10.03;94.77
13476;BME280;6810;63.824;20.288;2023-02-22T03:39:02;102329.56;;;-10.06;95.51
13476;BME280;6810;63.824;20.288;2023-02-22T03:41:50;102324.22;;;-10.11;95.42
13476;BME280;6810;63.824;20.288;2023-02-22T03:44:42;102335.44;;;-10.10;95.05
13476;BME280;6810;63.824;20.288;2023-02-22T03:48:05;102333.47;;;-10.14;94.81
13476;BME280;6810;63.824;20.288;2023-02-22T03:51:00;102328.09;;;-10.19;94.70
13476;BME280;6810;63.824;20.288;2023-02-22T03:53:51;102329.88;;;-10.18;94.46
13476;BME280;6810;63.824;20.288;2023-02-22T03:56:43;102324.59;;;-10.21;94.68
13476;BME280;6810;63.824;20.288;2023-02-22T03:59:35;102327.00;;;-10.24;94.80
13476;BME280;6810;63.824;20.288;2023-02-22T04:02:23;102326.94;;;-10.25;93.95
13476;BME280;6810;63.824;20.288;2023-02-22T04:05:16;102319.91;;;-10.28;94.10
13476;BME280;6810;63.824;20.288;2023-02-22T04:08:04;102317.19;;;-10.31;94.49
13476;BME280;6810;63.824;20.288;2023-02-22T04:10:51;102323.94;;;-10.33;94.70
13476;BME280;6810;63.824;20.288;2023-02-22T04:13:39;102306.19;;;-10.44;94.77
13476;BME280;6810;63.824;20.288;2023-02-22T04:16:27;102317.78;;;-10.36;94.65
13476;BME280;6810;63.824;20.288;2023-02-22T04:19:14;102321.78;;;-10.41;94.14
13476;BME280;6810;63.824;20.288;2023-02-22T04:22:01;102303.13;;;-10.53;93.86
13476;BME280;6810;63.824;20.288;2023-02-22T04:24:48;102329.28;;;-10.46;94.46
13476;BME280;6810;63.824;20.288;2023-02-22T04:27:35;102326.41;;;-10.52;93.91
13476;BME280;6810;63.824;20.288;2023-02-22T04:30:34;102348.13;;;-10.47;94.42
13476;BME280;6810;63.824;20.288;2023-02-22T04:33:22;102339.34;;;-10.50;93.68
13476;BME280;6810;63.824;20.288;2023-02-22T04:36:12;102343.38;;;-10.55;93.39
13476;BME280;6810;63.824;20.288;2023-02-22T04:38:59;102352.97;;;-10.53;93.44
13476;BME280;6810;63.824;20.288;2023-02-22T04:41:47;102361.41;;;-10.55;93.32
13476;BME280;6810;63.824;20.288;2023-02-22T04:44:34;102355.31;;;-10.57;93.76
13476;BME280;6810;63.824;20.288;2023-02-22T04:47:21;102341.59;;;-10.72;94.29
13476;BME280;6810;63.824;20.288;2023-02-22T04:50:08;102368.81;;;-10.61;94.11
13476;BME280;6810;63.824;20.288;2023-02-22T04:52:57;102359.16;;;-10.65;94.12
13476;BME280;6810;63.824;20.288;2023-02-22T04:55:44;102304.94;;;-11.01;94.01
13476;BME280;6810;63.824;20.288;2023-02-22T04:58:31;102368.31;;;-10.70;93.31
13476;BME280;6810;63.824;20.288;2023-02-22T05:01:18;102364.78;;;-10.72;94.01
13476;BME280;6810;63.824;20.288;2023-02-22T05:04:06;102357.78;;;-10.75;93.72
13476;BME280;6810;63.824;20.288;2023-02-22T05:06:53;102360.19;;;-10.78;93.43
13476;BME280;6810;63.824;20.288;2023-02-22T05:09:40;102357.22;;;-10.85;93.68
13476;BME280;6810;63.824;20.288;2023-02-22T05:12:27;102370.25;;;-10.82;93.65
13476;BME280;6810;63.824;20.288;2023-02-22T05:15:17;102373.47;;;-10.86;93.29
13476;BME280;6810;63.824;20.288;2023-02-22T05:18:04;102374.19;;;-10.89;93.30
13476;BME280;6810;63.824;20.288;2023-02-22T05:20:51;102377.41;;;-10.93;93.29
13476;BME280;6810;63.824;20.288;2023-02-22T05:23:38;102370.03;;;-11.02;92.73
13476;BME280;6810;63.824;20.288;2023-02-22T05:26:25;102384.78;;;-10.99;93.01
13476;BME280;6810;63.824;20.288;2023-02-22T05:29:12;102381.25;;;-11.01;93.56
13476;BME280;6810;63.824;20.288;2023-02-22T05:31:59;102386.31;;;-11.03;93.51
13476;BME280;6810;63.824;20.288;2023-02-22T05:34:46;102383.41;;;-11.09;93.50
13476;BME280;6810;63.824;20.288;2023-02-22T05:37:33;102381.72;;;-11.08;93.21
13476;BME280;6810;63.824;20.288;2023-02-22T05:40:22;102359.41;;;-11.24;92.84
13476;BME280;6810;63.824;20.288;2023-02-22T05:43:09;102378.72;;;-11.16;92.42
13476;BME280;6810;63.824;20.288;2023-02-22T05:45:56;102374.44;;;-11.15;93.23
13476;BME280;6810;63.824;20.288;2023-02-22T05:48:43;102380.41;;;-11.16;92.50
13476;BME280;6810;63.824;20.288;2023-02-22T05:51:30;102377.66;;;-11.19;93.25
13476;BME280;6810;63.824;20.288;2023-02-22T05:54:17;102379.34;;;-11.20;93.38
13476;BME280;6810;63.824;20.288;2023-02-22T05:57:04;102372.34;;;-11.22;92.55
13476;BME280;6810;63.824;20.288;2023-02-22T05:59:51;102355.09;;;-11.39;92.89
13476;BME280;6810;63.824;20.288;2023-02-22T06:02:41;102380.59;;;-11.28;92.95
13476;BME280;6810;63.824;20.288;2023-02-22T06:05:28;102365.06;;;-11.29;92.94
13476;BME280;6810;63.824;20.288;2023-02-22T06:08:15;102360.66;;;-11.32;93.04
13476;BME280;6810;63.824;20.288;2023-02-22T06:11:03;102355.44;;;-11.33;92.77
13476;BME280;6810;63.824;20.288;2023-02-22T06:13:51;102360.41;;;-11.36;92.43
13476;BME280;6810;63.824;20.288;2023-02-22T06:16:38;102356.53;;;-11.44;92.26
13476;BME280;6810;63.824;20.288;2023-02-22T06:19:26;102374.78;;;-11.40;92.24
13476;BME280;6810;63.824;20.288;2023-02-22T06:22:18;102333.44;;;-11.59;92.75
13476;BME280;6810;63.824;20.288;2023-02-22T06:25:05;102360.81;;;-11.45;92.13
13476;BME280;6810;63.824;20.288;2023-02-22T06:27:52;102370.09;;;-11.47;92.15
13476;BME280;6810;63.824;20.288;2023-02-22T06:30:39;102360.09;;;-11.57;92.14
13476;BME280;6810;63.824;20.288;2023-02-22T06:33:26;102383.44;;;-11.54;92.23
13476;BME280;6810;63.824;20.288;2023-02-22T06:36:13;102357.94;;;-11.65;92.66
13476;BME280;6810;63.824;20.288;2023-02-22T06:39:00;102368.53;;;-11.59;92.09
13476;BME280;6810;63.824;20.288;2023-02-22T06:41:47;102379.97;;;-11.54;92.21
13476;BME280;6810;63.824;20.288;2023-02-22T06:44:34;102335.34;;;-11.85;92.50
13476;BME280;6810;63.824;20.288;2023-02-22T06:47:21;102319.59;;;-11.91;92.61
13476;BME280;6810;63.824;20.288;2023-02-22T06:50:28;102384.94;;;-11.57;91.95
13476;BME280;6810;63.824;20.288;2023-02-22T06:53:15;102374.16;;;-11.66;92.10
13476;BME280;6810;63.824;20.288;2023-02-22T06:56:03;102382.97;;;-11.61;92.36
13476;BME280;6810;63.824;20.288;2023-02-22T06:58:50;102387.25;;;-11.62;92.20
13476;BME280;6810;63.824;20.288;2023-02-22T07:01:40;102352.41;;;-11.87;92.11
13476;BME280;6810;63.824;20.288;2023-02-22T07:04:27;102389.69;;;-11.65;92.07
13476;BME280;6810;63.824;20.288;2023-02-22T07:07:14;102390.47;;;-11.66;91.74
13476;BME280;6810;63.824;20.288;2023-02-22T07:10:01;102396.41;;;-11.67;92.06
13476;BME280;6810;63.824;20.288;2023-02-22T07:12:48;102388.34;;;-11.73;92.67
13476;BME280;6810;63.824;20.288;2023-02-22T07:15:16;102394.56;;;-11.69;91.77
13476;BME280;6810;63.824;20.288;2023-02-22T07:17:43;102401.38;;;-11.70;92.45
13476;BME280;6810;63.824;20.288;2023-02-22T07:20:10;102398.81;;;-11.70;92.03
13476;BME280;6810;63.824;20.288;2023-02-22T07:22:38;102397.72;;;-11.73;92.27
13476;BME280;6810;63.824;20.288;2023-02-22T07:25:06;102400.38;;;-11.72;92.69
13476;BME280;6810;63.824;20.288;2023-02-22T07:27:39;102398.63;;;-11.73;92.64
13476;BME280;6810;63.824;20.288;2023-02-22T07:30:21;102402.78;;;-11.75;92.07
13476;BME280;6810;63.824;20.288;2023-02-22T07:33:12;102388.72;;;-11.81;91.56
13476;BME280;6810;63.824;20.288;2023-02-22T07:35:59;102381.44;;;-11.88;92.58
13476;BME280;6810;63.824;20.288;2023-02-22T07:38:46;102413.16;;;-11.73;92.32
13476;BME280;6810;63.824;20.288;2023-02-22T07:41:33;102409.72;;;-11.74;91.71
13476;BME280;6810;63.824;20.288;2023-02-22T07:44:22;102411.47;;;-11.73;91.65
13476;BME280;6810;63.824;20.288;2023-02-22T07:47:09;102413.16;;;-11.73;92.32
13476;BME280;6810;63.824;20.288;2023-02-22T07:49:56;102410.59;;;-11.73;92.64
13476;BME280;6810;63.824;20.288;2023-02-22T07:52:47;102421.75;;;-11.73;92.54
13476;BME280;6810;63.824;20.288;2023-02-22T07:55:34;102419.28;;;-11.71;92.14
13476;BME280;6810;63.824;20.288;2023-02-22T07:58:23;102356.19;;;-12.10;92.54
13476;BME280;6810;63.824;20.288;2023-02-22T08:01:10;102428.84;;;-11.69;91.99
13476;BME280;6810;63.824;20.288;2023-02-22T08:03:57;102424.69;;;-11.67;92.85
13476;BME280;6810;63.824;20.288;2023-02-22T08:06:44;102426.44;;;-11.66;91.89
13476;BME280;6810;63.824;20.288;2023-02-22T08:09:31;102428.31;;;-11.63;92.58
13476;BME280;6810;63.824;20.288;2023-02-22T08:12:18;102438.66;;;-11.62;92.58
13476;BME280;6810;63.824;20.288;2023-02-22T08:15:07;102426.69;;;-11.61;92.23
13476;BME280;6810;63.824;20.288;2023-02-22T08:17:58;102437.22;;;-11.57;92.03
13476;BME280;6810;63.824;20.288;2023-02-22T08:20:47;102436.63;;;-11.53;93.00
13476;BME280;6810;63.824;20.288;2023-02-22T08:23:35;102434.94;;;-11.52;92.18
13476;BME280;6810;63.824;20.288;2023-02-22T08:26:22;102416.56;;;-11.58;93.15
13476;BME280;6810;63.824;20.288;2023-02-22T08:29:09;102433.75;;;-11.43;92.63
13476;BME280;6810;63.824;20.288;2023-02-22T08:31:56;102428.78;;;-11.40;92.29
13476;BME280;6810;63.824;20.288;2023-02-22T08:34:43;102425.53;;;-11.37;92.43
13476;BME280;6810;63.824;20.288;2023-02-22T08:37:30;102413.69;;;-11.34;93.33
13476;BME280;6810;63.824;20.288;2023-02-22T08:40:20;102420.00;;;-11.29;92.43
13476;BME280;6810;63.824;20.288;2023-02-22T08:43:07;102426.22;;;-11.25;92.98
13476;BME280;6810;63.824;20.288;2023-02-22T08:45:54;102424.78;;;-11.20;92.86
13476;BME280;6810;63.824;20.288;2023-02-22T08:48:51;102379.47;;;-11.33;93.23
13476;BME280;6810;63.824;20.288;2023-02-22T08:51:38;102416.69;;;-11.12;92.73
13476;BME280;6810;63.824;20.288;2023-02-22T08:54:25;102418.59;;;-11.08;93.63
13476;BME280;6810;63.824;20.288;2023-02-22T08:57:12;102410.88;;;-11.08;93.22
13476;BME280;6810;63.824;20.288;2023-02-22T08:59:59;102401.66;;;-11.04;93.56
13476;BME280;6810;63.824;20.288;2023-02-22T09:02:46;102402.00;;;-10.98;93.69
13476;BME280;6810;63.824;20.288;2023-02-22T09:05:33;102412.69;;;-10.91;93.47
13476;BME280;6810;63.824;20.288;2023-02-22T09:08:21;102406.94;;;-10.86;93.24
13476;BME280;6810;63.824;20.288;2023-02-22T09:11:08;102405.38;;;-10.83;93.89
13476;BME280;6810;63.824;20.288;2023-02-22T09:13:55;102396.63;;;-10.86;93.27
13476;BME280;6810;63.824;20.288;2023-02-22T09:16:45;102407.50;;;-10.76;94.01
13476;BME280;6810;63.824;20.288;2023-02-22T09:19:32;102358.16;;;-11.00;93.96
13476;BME280;6810;63.824;20.288;2023-02-22T09:22:19;102407.19;;;-10.66;93.67
13476;BME280;6810;63.824;20.288;2023-02-22T09:25:06;102407.50;;;-10.60;94.26
13476;BME280;6810;63.824;20.288;2023-02-22T09:27:55;102402.59;;;-10.55;93.33
13476;BME280;6810;63.824;20.288;2023-02-22T09:30:42;102400.19;;;-10.52;94.10
13476;BME280;6810;63.824;20.288;2023-02-22T09:33:29;102403.91;;;-10.47;93.47
13476;BME280;6810;63.824;20.288;2023-02-22T09:36:16;102360.91;;;-10.64;94.05
13476;BME280;6810;63.824;20.288;2023-02-22T09:39:03;102395.84;;;-10.37;94.41
13476;BME280;6810;63.824;20.288;2023-02-22T09:42:11;102360.63;;;-10.54;93.88
13476;BME280;6810;63.824;20.288;2023-02-22T09:45:11;102386.91;;;-10.28;94.24
13476;BME280;6810;63.824;20.288;2023-02-22T09:48:02;102383.84;;;-10.21;93.97
13476;BME280;6810;63.824;20.288;2023-02-22T09:50:52;102386.59;;;-10.18;94.55
13476;BME280;6810;63.824;20.288;2023-02-22T09:53:45;102386.00;;;-10.12;94.39
13476;BME280;6810;63.824;20.288;2023-02-22T09:56:34;102381.06;;;-10.08;94.41
13476;BME280;6810;63.824;20.288;2023-02-22T09:59:26;102377.09;;;-10.01;94.27
13476;BME280;6810;63.824;20.288;2023-02-22T10:02:36;102365.47;;;-9.93;95.19
13476;BME280;6810;63.824;20.288;2023-02-22T10:05:33;102360.56;;;-9.89;95.04
13476;BME280;6810;63.824;20.288;2023-02-22T10:08:24;102341.53;;;-9.91;94.70
13476;BME280;6810;63.824;20.288;2023-02-22T10:11:51;102358.81;;;-9.72;95.36
13476;BME280;6810;63.824;20.288;2023-02-22T10:15:14;102365.19;;;-9.64;95.01
13476;BME280;6810;63.824;20.288;2023-02-22T10:18:35;102363.00;;;-9.57;95.52
13476;BME280;6810;63.824;20.288;2023-02-22T10:21:42;102365.13;;;-9.48;95.72
13476;BME280;6810;63.824;20.288;2023-02-22T10:24:42;102367.19;;;-9.41;95.38
13476;BME280;6810;63.824;20.288;2023-02-22T10:27:45;102367.63;;;-9.32;95.77
13476;BME280;6810;63.824;20.288;2023-02-22T10:30:57;102362.84;;;-9.25;96.00
13476;BME280;6810;63.824;20.288;2023-02-22T10:33:54;102370.97;;;-9.17;95.93
13476;BME280;6810;63.824;20.288;2023-02-22T10:36:45;102358.25;;;-9.13;95.83
13476;BME280;6810;63.824;20.288;2023-02-22T10:39:34;102353.47;;;-9.05;95.76
13476;BME280;6810;63.824;20.288;2023-02-22T10:42:25;102338.97;;;-9.02;95.63
13476;BME280;6810;63.824;20.288;2023-02-22T10:45:28;102357.56;;;-8.91;95.66
13476;BME280;6810;63.824;20.288;2023-02-22T10:48:18;102359.59;;;-8.84;96.25
13476;BME280;6810;63.824;20.288;2023-02-22T10:51:08;102360.84;;;-8.76;96.01
13476;BME280;6810;63.824;20.288;2023-02-22T10:54:21;102351.66;;;-8.69;96.27
13476;BME280;6810;63.824;20.288;2023-02-22T10:57:10;102277.00;;;-9.02;96.64
13476;BME280;6810;63.824;20.288;2023-02-22T11:00:13;102351.47;;;-8.55;96.34
13476;BME280;6810;63.824;20.288;2023-02-22T11:03:22;102335.13;;;-8.54;96.93
13476;BME280;6810;63.824;20.288;2023-02-22T11:06:18;102347.78;;;-8.41;96.53
13476;BME280;6810;63.824;20.288;2023-02-22T11:12:08;102334.50;;;-8.29;96.64
13476;BME280;6810;63.824;20.288;2023-02-22T11:14:55;102334.00;;;-8.21;97.33
13476;BME280;6810;63.824;20.288;2023-02-22T11:17:49;102334.31;;;-8.13;96.96
13476;BME280;6810;63.824;20.288;2023-02-22T11:20:38;102330.56;;;-8.01;97.23
13476;BME280;6810;63.824;20.288;2023-02-22T11:23:25;102319.63;;;-7.94;97.28
13476;BME280;6810;63.824;20.288;2023-02-22T11:26:16;102324.28;;;-7.85;97.33
13476;BME280;6810;63.824;20.288;2023-02-22T11:29:11;102330.59;;;-7.79;97.77
13476;BME280;6810;63.824;20.288;2023-02-22T11:32:14;102315.56;;;-7.67;97.93
13476;BME280;6810;63.824;20.288;2023-02-22T11:35:29;102311.59;;;-7.59;97.80
13476;BME280;6810;63.824;20.288;2023-02-22T11:38:19;102318.09;;;-7.48;97.94
13476;BME280;6810;63.824;20.288;2023-02-22T11:44:21;102317.91;;;-7.30;98.65
13476;BME280;6810;63.824;20.288;2023-02-22T11:47:10;102310.44;;;-7.23;98.29
13476;BME280;6810;63.824;20.288;2023-02-22T11:49:41;102278.03;;;-7.35;97.92
13476;BME280;6810;63.824;20.288;2023-02-22T11:52:38;102311.91;;;-7.07;98.39
13476;BME280;6810;63.824;20.288;2023-02-22T12:11:42;102298.88;;;-6.63;98.47
13476;BME280;6810;63.824;20.288;2023-02-22T12:14:20;102292.22;;;-6.56;99.14
13476;BME280;6810;63.824;20.288;2023-02-22T12:19:38;102288.41;;;-6.42;99.29
13476;BME280;6810;63.824;20.288;2023-02-22T12:22:26;102275.41;;;-6.44;98.94
13476;BME280;6810;63.824;20.288;2023-02-22T12:25:16;102288.88;;;-6.29;99.08
13476;BME280;6810;63.824;20.288;2023-02-22T12:27:52;102271.56;;;-6.30;99.57
13476;BME280;6810;63.824;20.288;2023-02-22T12:30:24;102282.34;;;-6.18;99.53
13476;BME280;6810;63.824;20.288;2023-02-22T12:32:54;102265.69;;;-6.24;98.96
13476;BME280;6810;63.824;20.288;2023-02-22T12:35:27;102280.13;;;-6.07;99.42
13476;BME280;6810;63.824;20.288;2023-02-22T12:43:55;102271.09;;;-5.93;100.00
13476;BME280;6810;63.824;20.288;2023-02-22T12:46:43;102264.31;;;-5.88;99.93
13476;BME280;6810;63.824;20.288;2023-02-22T12:49:20;102217.00;;;-6.06;100.00
13476;BME280;6810;63.824;20.288;2023-02-22T12:54:55;102231.31;;;-5.92;100.00
13476;BME280;6810;63.824;20.288;2023-02-22T12:57:39;102247.34;;;-5.77;100.00
13476;BME280;6810;63.824;20.288;2023-02-22T13:00:21;102259.72;;;-5.70;100.00
13476;BME280;6810;63.824;20.288;2023-02-22T13:12:52;102236.72;;;-5.58;99.94
13476;BME280;6810;63.824;20.288;2023-02-22T13:18:59;102232.56;;;-5.52;100.00
13476;BME280;6810;63.824;20.288;2023-02-22T13:21:55;102233.50;;;-5.50;100.00
13476;BME280;6810;63.824;20.288;2023-02-22T13:25:01;102223.16;;;-5.48;100.00
13476;BME280;6810;63.824;20.288;2023-02-22T13:28:49;102222.41;;;-5.46;100.00
13476;BME280;6810;63.824;20.288;2023-02-22T13:31:33;102208.63;;;-5.43;100.00
13476;BME280;6810;63.824;20.288;2023-02-22T13:40:53;102154.50;;;-5.58;100.00
13476;BME280;6810;63.824;20.288;2023-02-22T13:44:00;102191.69;;;-5.30;100.00
13476;BME280;6810;63.824;20.288;2023-02-22T13:47:06;102176.13;;;-5.29;100.00
13476;BME280;6810;63.824;20.288;2023-02-22T13:53:16;102175.41;;;-5.23;100.00
13476;BME280;6810;63.824;20.288;2023-02-22T13:56:04;102172.03;;;-5.21;100.00
13476;BME280;6810;63.824;20.288;2023-02-22T13:58:54;102164.22;;;-5.21;100.00
13476;BME280;6810;63.824;20.288;2023-02-22T14:01:47;102156.44;;;-5.21;100.00
13476;BME280;6810;63.824;20.288;2023-02-22T14:04:37;102135.44;;;-5.28;100.00
13476;BME280;6810;63.824;20.288;2023-02-22T14:11:38;102149.56;;;-5.19;100.00
13476;BME280;6810;63.824;20.288;2023-02-22T14:14:07;102144.41;;;-5.17;100.00
13476;BME280;6810;63.824;20.288;2023-02-22T14:17:23;102138.38;;;-5.16;100.00
13476;BME280;6810;63.824;20.288;2023-02-22T14:23:26;102129.75;;;-5.15;100.00
13476;BME280;6810;63.824;20.288;2023-02-22T14:26:34;102126.31;;;-5.14;100.00
13476;BME280;6810;63.824;20.288;2023-02-22T14:29:21;102115.84;;;-5.17;100.00
13476;BME280;6810;63.824;20.288;2023-02-22T14:32:09;102100.06;;;-5.23;100.00
13476;BME280;6810;63.824;20.288;2023-02-22T14:35:03;102067.59;;;-5.39;100.00
13476;BME280;6810;63.824;20.288;2023-02-22T14:37:59;102084.31;;;-5.29;100.00
13476;BME280;6810;63.824;20.288;2023-02-22T14:40:48;102112.59;;;-5.10;100.00
13476;BME280;6810;63.824;20.288;2023-02-22T14:43:37;102101.34;;;-5.09;100.00
13476;BME280;6810;63.824;20.288;2023-02-22T14:46:26;102099.66;;;-5.07;100.00
13476;BME280;6810;63.824;20.288;2023-02-22T14:49:20;102088.44;;;-5.06;100.00
13476;BME280;6810;63.824;20.288;2023-02-22T14:52:24;102087.56;;;-5.05;100.00
13476;BME280;6810;63.824;20.288;2023-02-22T14:55:24;102093.69;;;-5.03;100.00
13476;BME280;6810;63.824;20.288;2023-02-22T14:58:35;102065.78;;;-5.12;100.00
13476;BME280;6810;63.824;20.288;2023-02-22T15:04:31;102082.50;;;-5.01;100.00
13476;BME280;6810;63.824;20.288;2023-02-22T15:07:28;102080.88;;;-4.97;100.00
13476;BME280;6810;63.824;20.288;2023-02-22T15:10:21;102080.91;;;-4.96;100.00
13476;BME280;6810;63.824;20.288;2023-02-22T15:16:02;102079.22;;;-4.94;100.00
13476;BME280;6810;63.824;20.288;2023-02-22T15:18:58;102067.91;;;-4.96;100.00
13476;BME280;6810;63.824;20.288;2023-02-22T15:21:46;102071.44;;;-4.94;100.00
13476;BME280;6810;63.824;20.288;2023-02-22T15:24:34;102068.00;;;-4.93;100.00
13476;BME280;6810;63.824;20.288;2023-02-22T15:27:21;102053.91;;;-5.01;100.00
13476;BME280;6810;63.824;20.288;2023-02-22T15:30:26;102061.94;;;-4.92;100.00
13476;BME280;6810;63.824;20.288;2023-02-22T15:33:18;102062.88;;;-4.90;100.00
13476;BME280;6810;63.824;20.288;2023-02-22T15:36:13;102057.66;;;-4.90;100.00
13476;BME280;6810;63.824;20.288;2023-02-22T15:39:00;102051.66;;;-4.87;100.00
13476;BME280;6810;63.824;20.288;2023-02-22T15:41:47;102043.84;;;-4.87;100.00
13476;BME280;6810;63.824;20.288;2023-02-22T15:44:47;102004.44;;;-5.04;100.00
13476;BME280;6810;63.824;20.288;2023-02-22T15:47:34;102042.19;;;-4.85;100.00
13476;BME280;6810;63.824;20.288;2023-02-22T15:50:32;102033.53;;;-4.84;100.00
13476;BME280;6810;63.824;20.288;2023-02-22T15:56:16;102000.28;;;-4.97;100.00
13476;BME280;6810;63.824;20.288;2023-02-22T15:59:12;102018.94;;;-4.79;100.00
13476;BME280;6810;63.824;20.288;2023-02-22T16:02:00;102012.03;;;-4.79;100.00
13476;BME280;6810;63.824;20.288;2023-02-22T16:04:47;102006.91;;;-4.76;100.00
13476;BME280;6810;63.824;20.288;2023-02-22T16:07:38;102013.88;;;-4.73;100.00
13476;BME280;6810;63.824;20.288;2023-02-22T16:10:30;102002.69;;;-4.71;100.00
13476;BME280;6810;63.824;20.288;2023-02-22T16:13:23;101988.00;;;-4.69;100.00